createdAt,value
2023-02-19T00:01:32.263Z,100.00
2023-02-19T00:04:01.388Z,100.00
2023-02-19T00:06:31.287Z,100.00
2023-02-19T00:08:59.262Z,100.00
2023-02-19T00:11:29.923Z,100.00
2023-02-19T00:13:59.189Z,100.00
2023-02-19T00:16:28.429Z,100.00
2023-02-19T00:18:58.102Z,100.00
2023-02-19T00:21:26.850Z,100.00
2023-02-19T00:23:55.924Z,100.00
2023-02-19T00:26:23.928Z,100.00
2023-02-19T00:28:54.116Z,100.00
2023-02-19T00:31:23.692Z,100.00
2023-02-19T00:33:53.479Z,100.00
2023-02-19T00:36:21.635Z,100.00
2023-02-19T00:38:50.028Z,100.00
2023-02-19T00:41:21.586Z,100.00
2023-02-19T00:43:50.912Z,100.00
2023-02-19T00:46:21.187Z,100.00
2023-02-19T00:48:49.273Z,100.00
2023-02-19T00:51:17.082Z,100.00
2023-02-19T00:53:44.918Z,100.00
2023-02-19T00:56:13.349Z,100.00
2023-02-19T00:58:41.206Z,100.00
2023-02-19T01:01:09.792Z,100.00
2023-02-19T01:03:39.902Z,100.00
2023-02-19T01:06:09.492Z,100.00
2023-02-19T01:08:37.968Z,100.00
2023-02-19T01:11:07.194Z,100.00
2023-02-19T01:13:35.232Z,100.00
2023-02-19T01:16:06.651Z,100.00
2023-02-19T01:18:34.608Z,100.00
2023-02-19T01:21:07.113Z,100.00
2023-02-19T01:23:35.161Z,100.00
2023-02-19T01:26:05.617Z,100.00
2023-02-19T01:28:33.352Z,100.00
2023-02-19T01:31:02.700Z,100.00
2023-02-19T01:33:30.346Z,100.00
2023-02-19T01:35:58.117Z,100.00
2023-02-19T01:38:27.225Z,100.00
2023-02-19T01:40:58.585Z,100.00
2023-02-19T01:43:26.305Z,100.00
2023-02-19T01:45:54.048Z,100.00
2023-02-19T01:48:24.479Z,100.00
2023-02-19T01:50:55.180Z,100.00
2023-02-19T01:53:25.899Z,100.00
2023-02-19T01:55:57.292Z,100.00
2023-02-19T01:58:25.770Z,100.00
2023-02-19T02:00:53.450Z,100.00
2023-02-19T02:03:21.444Z,100.00
2023-02-19T02:05:55.383Z,100.00
2023-02-19T02:08:48.832Z,100.00
2023-02-19T02:11:17.920Z,100.00
2023-02-19T02:13:45.820Z,100.00
2023-02-19T02:16:22.122Z,100.00
2023-02-19T02:18:56.618Z,100.00
2023-02-19T02:21:58.366Z,100.00
2023-02-19T02:24:47.089Z,100.00
2023-02-19T02:27:29.776Z,100.00
2023-02-19T02:30:14.944Z,100.00
2023-02-19T02:32:53.444Z,100.00
2023-02-19T02:35:23.729Z,100.00
2023-02-19T02:37:52.266Z,100.00
2023-02-19T02:40:20.810Z,100.00
2023-02-19T02:42:48.770Z,100.00
2023-02-19T02:45:36.219Z,100.00
2023-02-19T02:48:10.279Z,100.00
2023-02-19T02:50:40.898Z,100.00
2023-02-19T02:53:30.188Z,100.00
2023-02-19T02:56:00.361Z,100.00
2023-02-19T02:58:29.334Z,100.00
2023-02-19T03:01:18.882Z,100.00
2023-02-19T03:03:49.305Z,100.00
2023-02-19T03:06:18.592Z,100.00
2023-02-19T03:08:50.210Z,100.00
2023-02-19T03:11:46.644Z,100.00
2023-02-19T03:14:34.258Z,100.00
2023-02-19T03:17:25.140Z,100.00
2023-02-19T03:19:55.925Z,100.00
2023-02-19T03:22:25.851Z,100.00
2023-02-19T03:25:14.312Z,100.00
2023-02-19T03:27:43.925Z,100.00
2023-02-19T03:30:14.077Z,100.00
2023-02-19T03:32:46.330Z,100.00
2023-02-19T03:35:17.667Z,100.00
2023-02-19T03:37:47.848Z,100.00
2023-02-19T03:40:16.177Z,100.00
2023-02-19T03:42:51.386Z,99.59
2023-02-19T03:45:28.935Z,99.60
2023-02-19T03:48:08.566Z,99.45
2023-02-19T03:50:43.297Z,99.90
2023-02-19T03:53:14.998Z,99.64
2023-02-19T03:55:45.790Z,99.76
2023-02-19T03:58:17.424Z,99.52
2023-02-19T04:00:46.851Z,99.37
2023-02-19T04:03:20.535Z,99.58
2023-02-19T04:05:51.100Z,99.25
2023-02-19T04:08:20.766Z,99.22
2023-02-19T04:10:48.836Z,98.98
2023-02-19T04:13:19.446Z,99.07
2023-02-19T04:15:48.797Z,98.90
2023-02-19T04:18:20.008Z,98.84
2023-02-19T04:20:48.833Z,99.08
2023-02-19T04:23:19.725Z,99.08
2023-02-19T04:25:50.578Z,98.68
2023-02-19T04:28:18.944Z,98.75
2023-02-19T04:30:46.991Z,98.94
2023-02-19T04:33:14.725Z,98.98
2023-02-19T04:35:43.734Z,98.75
2023-02-19T04:38:12.324Z,98.59
2023-02-19T04:40:40.029Z,98.72
2023-02-19T04:43:07.650Z,98.86
2023-02-19T04:45:35.409Z,98.93
2023-02-19T04:48:03.081Z,99.10
2023-02-19T04:50:30.802Z,99.09
2023-02-19T04:52:59.867Z,99.44
2023-02-19T04:55:27.561Z,99.70
2023-02-19T04:57:55.197Z,99.82
2023-02-19T05:00:23.239Z,99.52
2023-02-19T05:02:50.964Z,99.80
2023-02-19T05:05:18.697Z,99.44
2023-02-19T05:07:46.410Z,99.65
2023-02-19T05:10:16.766Z,99.44
2023-02-19T05:12:44.444Z,99.54
2023-02-19T05:15:12.113Z,99.57
2023-02-19T05:17:39.801Z,99.67
2023-02-19T05:20:08.456Z,99.48
2023-02-19T05:22:36.110Z,99.51
2023-02-19T05:25:04.403Z,99.48
2023-02-19T05:27:33.571Z,99.45
2023-02-19T05:30:01.301Z,99.48
2023-02-19T05:32:29.015Z,99.65
2023-02-19T05:34:56.653Z,99.31
2023-02-19T05:37:24.343Z,99.64
2023-02-19T05:39:52.000Z,99.99
2023-02-19T05:42:19.672Z,99.69
2023-02-19T05:44:48.763Z,99.60
2023-02-19T05:47:16.476Z,100.00
2023-02-19T05:49:44.148Z,100.00
2023-02-19T05:52:11.801Z,100.00
2023-02-19T05:54:39.559Z,100.00
2023-02-19T05:57:07.282Z,100.00
2023-02-19T05:59:34.963Z,100.00
2023-02-19T06:02:04.058Z,100.00
2023-02-19T06:04:31.798Z,100.00
2023-02-19T06:06:59.460Z,99.72
2023-02-19T06:09:27.125Z,99.44
2023-02-19T06:11:54.781Z,99.32
2023-02-19T06:14:22.488Z,99.30
2023-02-19T06:16:50.195Z,99.28
2023-02-19T06:19:19.418Z,99.13
2023-02-19T06:21:47.694Z,99.03
2023-02-19T06:24:15.365Z,99.31
2023-02-19T06:26:43.070Z,99.25
2023-02-19T06:29:10.720Z,99.29
2023-02-19T06:31:38.511Z,99.21
2023-02-19T06:34:06.612Z,99.53
2023-02-19T06:36:35.693Z,99.18
2023-02-19T06:39:04.826Z,99.50
2023-02-19T06:41:32.637Z,99.55
2023-02-19T06:44:00.369Z,99.48
2023-02-19T06:46:28.175Z,99.64
2023-02-19T06:48:55.915Z,99.96
2023-02-19T06:51:26.338Z,100.00
2023-02-19T06:53:55.618Z,100.00
2023-02-19T06:56:25.925Z,100.00
2023-02-19T06:58:54.159Z,100.00
2023-02-19T07:01:22.013Z,100.00
2023-02-19T07:03:50.065Z,100.00
2023-02-19T07:06:17.821Z,100.00
2023-02-19T07:08:45.743Z,100.00
2023-02-19T07:11:14.766Z,100.00
2023-02-19T07:13:42.376Z,100.00
2023-02-19T07:16:11.497Z,100.00
2023-02-19T07:18:40.537Z,100.00
2023-02-19T07:21:09.956Z,100.00
2023-02-19T07:23:38.167Z,100.00
2023-02-19T07:26:06.243Z,100.00
2023-02-19T07:28:35.371Z,100.00
2023-02-19T07:31:04.689Z,100.00
2023-02-19T07:33:32.422Z,100.00
2023-02-19T07:36:00.215Z,100.00
2023-02-19T07:38:28.381Z,100.00
2023-02-19T07:40:57.311Z,100.00
2023-02-19T07:43:25.491Z,99.99
2023-02-19T07:45:54.795Z,99.81
2023-02-19T07:48:22.777Z,99.64
2023-02-19T07:50:53.611Z,99.59
2023-02-19T07:53:21.566Z,99.72
2023-02-19T07:55:49.350Z,99.85
2023-02-19T07:58:17.146Z,99.72
2023-02-19T08:00:45.248Z,99.95
2023-02-19T08:03:13.323Z,99.37
2023-02-19T08:05:42.760Z,97.67
2023-02-19T08:08:11.600Z,97.77
2023-02-19T08:10:56.919Z,97.23
2023-02-19T08:13:25.469Z,97.03
2023-02-19T08:15:57.772Z,97.19
2023-02-19T08:18:33.815Z,96.98
2023-02-19T08:21:01.938Z,96.66
2023-02-19T08:23:30.061Z,94.74
2023-02-19T08:25:59.017Z,94.26
2023-02-19T08:28:26.790Z,94.82
2023-02-19T08:30:54.576Z,94.55
2023-02-19T08:33:22.903Z,94.21
2023-02-19T08:35:51.994Z,93.77
2023-02-19T08:38:19.635Z,93.71
2023-02-19T08:40:47.356Z,93.42
2023-02-19T08:43:16.991Z,93.71
2023-02-19T08:45:47.279Z,93.12
2023-02-19T08:48:15.228Z,93.18
2023-02-19T08:50:42.962Z,93.49
2023-02-19T08:53:12.045Z,93.25
2023-02-19T08:55:40.014Z,93.31
2023-02-19T08:58:07.721Z,93.45
2023-02-19T09:00:35.415Z,92.76
2023-02-19T09:03:03.122Z,93.45
2023-02-19T09:05:30.759Z,93.68
2023-02-19T09:07:58.618Z,93.29
2023-02-19T09:10:27.633Z,93.14
2023-02-19T09:12:55.331Z,93.34
2023-02-19T09:15:22.996Z,92.62
2023-02-19T09:17:52.624Z,93.13
2023-02-19T09:20:20.562Z,93.28
2023-02-19T09:22:48.313Z,92.65
2023-02-19T09:25:16.062Z,92.96
2023-02-19T09:27:45.199Z,92.99
2023-02-19T09:30:13.207Z,92.48
2023-02-19T09:32:40.978Z,93.13
2023-02-19T09:35:08.802Z,93.53
2023-02-19T09:37:36.822Z,93.17
2023-02-19T09:40:04.705Z,93.16
2023-02-19T09:42:33.821Z,92.25
2023-02-19T09:45:03.333Z,92.49
2023-02-19T09:47:32.665Z,92.74
2023-02-19T09:50:02.337Z,92.32
2023-02-19T09:52:34.128Z,91.79
2023-02-19T09:55:04.663Z,91.75
2023-02-19T09:57:34.510Z,91.84
2023-02-19T10:00:10.399Z,91.86
2023-02-19T10:02:38.532Z,91.18
2023-02-19T10:05:12.719Z,91.17
2023-02-19T10:07:42.971Z,90.42
2023-02-19T10:10:29.942Z,90.20
2023-02-19T10:13:04.082Z,90.26
2023-02-19T10:15:35.930Z,89.06
2023-02-19T10:18:05.155Z,89.43
2023-02-19T10:20:33.070Z,88.44
2023-02-19T10:23:04.500Z,89.25
2023-02-19T10:25:33.308Z,89.30
2023-02-19T10:28:01.513Z,89.61
2023-02-19T10:30:31.693Z,89.55
2023-02-19T10:33:03.778Z,88.77
2023-02-19T10:35:31.789Z,89.14
2023-02-19T10:37:59.563Z,87.29
2023-02-19T10:40:29.090Z,87.69
2023-02-19T10:42:59.801Z,87.61
2023-02-19T10:45:33.658Z,88.42
2023-02-19T10:48:02.828Z,87.47
2023-02-19T10:50:32.532Z,86.65
2023-02-19T10:53:01.897Z,86.33
2023-02-19T10:55:32.748Z,86.97
2023-02-19T10:58:21.603Z,86.14
2023-02-19T11:00:49.283Z,85.18
2023-02-19T11:03:23.977Z,84.58
2023-02-19T11:05:56.073Z,85.38
2023-02-19T11:08:24.788Z,86.37
2023-02-19T11:10:52.626Z,86.22
2023-02-19T11:13:27.346Z,85.54
2023-02-19T11:15:56.473Z,84.28
2023-02-19T11:18:26.895Z,86.73
2023-02-19T11:20:56.811Z,86.21
2023-02-19T11:23:28.412Z,85.41
2023-02-19T11:25:58.151Z,85.20
2023-02-19T11:28:33.000Z,82.24
2023-02-19T11:31:24.246Z,82.13
2023-02-19T11:33:56.324Z,81.46
2023-02-19T11:36:32.758Z,81.48
2023-02-19T11:39:16.752Z,81.06
2023-02-19T11:42:11.856Z,80.37
2023-02-19T11:44:49.192Z,79.94
2023-02-19T11:47:33.993Z,81.63
2023-02-19T11:50:10.101Z,81.13
2023-02-19T11:52:43.060Z,80.35
2023-02-19T11:55:18.292Z,80.80
2023-02-19T11:57:48.466Z,79.95
2023-02-19T12:00:22.734Z,80.85
2023-02-19T12:03:01.711Z,80.15
2023-02-19T12:05:58.709Z,79.33
2023-02-19T12:08:49.963Z,78.13
2023-02-19T12:11:29.644Z,77.89
2023-02-19T12:14:08.054Z,77.81
2023-02-19T12:16:38.052Z,78.41
2023-02-19T12:19:25.016Z,78.38
2023-02-19T12:22:06.108Z,79.28
2023-02-19T12:24:48.701Z,80.62
2023-02-19T12:27:27.178Z,78.73
2023-02-19T12:30:13.164Z,79.32
2023-02-19T12:32:54.170Z,77.57
2023-02-19T12:35:29.523Z,77.56
2023-02-19T12:38:06.708Z,77.81
2023-02-19T12:40:42.916Z,77.57
2023-02-19T12:43:17.044Z,76.88
2023-02-19T12:45:49.355Z,76.14
2023-02-19T12:48:24.882Z,77.23
2023-02-19T12:50:58.043Z,76.30
2023-02-19T12:53:44.983Z,77.64
2023-02-19T12:56:19.909Z,76.86
2023-02-19T12:58:49.991Z,75.81
2023-02-19T13:01:24.109Z,77.01
2023-02-19T13:03:55.116Z,76.00
2023-02-19T13:06:34.343Z,77.44
2023-02-19T13:09:06.990Z,75.29
2023-02-19T13:11:37.845Z,73.19
2023-02-19T13:14:10.508Z,74.66
2023-02-19T13:16:40.808Z,74.60
2023-02-19T13:19:08.433Z,74.64
2023-02-19T13:21:55.866Z,75.52
2023-02-19T13:24:28.094Z,77.89
2023-02-19T13:27:05.247Z,76.27
2023-02-19T13:29:44.955Z,75.01
2023-02-19T13:32:26.432Z,74.49
2023-02-19T13:35:20.372Z,74.90
2023-02-19T13:37:48.654Z,74.63
2023-02-19T13:40:34.218Z,75.46
2023-02-19T13:43:03.722Z,75.24
2023-02-19T13:45:35.378Z,76.39
2023-02-19T13:48:14.958Z,75.84
2023-02-19T13:50:43.027Z,74.83
2023-02-19T13:53:55.567Z,74.54
2023-02-19T13:56:41.123Z,73.88
2023-02-19T13:59:25.526Z,74.69
2023-02-19T14:02:29.220Z,74.93
2023-02-19T14:05:00.092Z,74.68
2023-02-19T14:08:03.925Z,74.73
2023-02-19T14:11:05.107Z,74.17
2023-02-19T14:14:09.832Z,75.47
2023-02-19T14:17:01.153Z,73.93
2023-02-19T14:19:50.938Z,74.28
2023-02-19T14:23:10.443Z,75.48
2023-02-19T14:25:49.695Z,73.59
2023-02-19T14:28:23.367Z,73.83
2023-02-19T14:30:54.085Z,73.43
2023-02-19T14:33:25.054Z,73.81
2023-02-19T14:35:56.177Z,75.38
2023-02-19T14:38:27.121Z,75.52
2023-02-19T14:40:55.510Z,73.16
2023-02-19T14:43:25.487Z,72.00
2023-02-19T14:45:57.404Z,72.59
2023-02-19T14:48:28.700Z,74.14
2023-02-19T14:50:59.082Z,74.43
2023-02-19T14:53:27.551Z,72.79
2023-02-19T14:55:56.392Z,71.27
2023-02-19T14:58:26.104Z,70.20
2023-02-19T15:00:55.121Z,70.76
2023-02-19T15:03:28.792Z,71.46
2023-02-19T15:05:58.396Z,75.09
2023-02-19T15:08:30.904Z,74.59
2023-02-19T15:10:58.575Z,75.59
2023-02-19T15:13:28.627Z,76.05
2023-02-19T15:15:58.222Z,76.49
2023-02-19T15:18:27.611Z,72.89
2023-02-19T15:21:01.223Z,72.28
2023-02-19T15:23:31.453Z,73.42
2023-02-19T15:26:00.389Z,72.29
2023-02-19T15:28:33.020Z,73.56
2023-02-19T15:31:23.087Z,72.98
2023-02-19T15:33:52.259Z,72.42
2023-02-19T15:36:26.192Z,73.26
2023-02-19T15:38:56.044Z,72.30
2023-02-19T15:41:25.116Z,74.35
2023-02-19T15:43:54.902Z,73.88
2023-02-19T15:46:25.772Z,74.40
2023-02-19T15:48:59.679Z,73.32
2023-02-19T15:51:31.034Z,73.66
2023-02-19T15:54:03.143Z,72.96
2023-02-19T15:56:33.440Z,73.29
2023-02-19T15:59:03.643Z,73.24
2023-02-19T16:01:35.343Z,73.39
2023-02-19T16:04:03.305Z,74.08
2023-02-19T16:06:31.352Z,73.66
2023-02-19T16:09:04.560Z,74.47
2023-02-19T16:11:36.889Z,74.00
2023-02-19T16:14:19.233Z,73.61
2023-02-19T16:16:50.288Z,75.45
2023-02-19T16:19:22.394Z,74.24
2023-02-19T16:21:50.254Z,75.25
2023-02-19T16:24:23.177Z,74.43
2023-02-19T16:26:50.977Z,74.58
2023-02-19T16:29:20.979Z,75.84
2023-02-19T16:31:51.651Z,75.54
2023-02-19T16:34:25.273Z,76.45
2023-02-19T16:36:52.948Z,75.50
2023-02-19T16:39:24.770Z,75.63
2023-02-19T16:42:22.567Z,76.41
2023-02-19T16:44:50.288Z,77.22
2023-02-19T16:47:25.750Z,77.46
2023-02-19T16:49:53.586Z,76.85
2023-02-19T16:52:21.278Z,76.96
2023-02-19T16:54:49.866Z,77.53
2023-02-19T16:57:17.693Z,76.90
2023-02-19T16:59:45.466Z,77.75
2023-02-19T17:02:18.122Z,77.44
2023-02-19T17:04:47.956Z,78.14
2023-02-19T17:07:17.491Z,78.25
2023-02-19T17:09:45.232Z,79.74
2023-02-19T17:12:14.621Z,79.17
2023-02-19T17:14:42.679Z,78.77
2023-02-19T17:17:10.424Z,79.06
2023-02-19T17:19:39.310Z,78.85
2023-02-19T17:22:09.024Z,79.11
2023-02-19T17:24:36.682Z,78.94
2023-02-19T17:27:04.401Z,79.91
2023-02-19T17:29:34.020Z,79.75
2023-02-19T17:32:02.043Z,80.21
2023-02-19T17:34:29.769Z,79.78
2023-02-19T17:36:57.664Z,79.81
2023-02-19T17:39:27.691Z,80.21
2023-02-19T17:41:55.489Z,80.41
2023-02-19T17:44:23.306Z,80.19
2023-02-19T17:46:51.058Z,80.79
2023-02-19T17:49:19.628Z,80.57
2023-02-19T17:51:47.295Z,81.01
2023-02-19T17:54:14.962Z,81.07
2023-02-19T17:56:45.973Z,80.79
2023-02-19T17:59:14.307Z,80.79
2023-02-19T18:01:41.994Z,81.17
2023-02-19T18:04:09.752Z,81.10
2023-02-19T18:06:37.498Z,80.33
2023-02-19T18:09:05.771Z,80.19
2023-02-19T18:11:33.417Z,79.70
2023-02-19T18:14:02.490Z,78.71
2023-02-19T18:16:30.152Z,78.64
2023-02-19T18:18:59.823Z,77.73
2023-02-19T18:21:27.491Z,76.93
2023-02-19T18:23:55.173Z,76.97
2023-02-19T18:26:22.906Z,76.67
2023-02-19T18:28:50.655Z,76.11
2023-02-19T18:31:19.800Z,76.38
2023-02-19T18:33:47.500Z,76.02
2023-02-19T18:36:15.284Z,76.09
2023-02-19T18:38:43.253Z,75.71
2023-02-19T18:41:13.000Z,75.94
2023-02-19T18:43:41.988Z,76.54
2023-02-19T18:46:10.140Z,75.94
2023-02-19T18:48:39.828Z,75.97
2023-02-19T18:51:10.714Z,76.35
2023-02-19T18:53:38.695Z,76.72
2023-02-19T18:56:09.014Z,77.00
2023-02-19T18:58:36.786Z,77.49
2023-02-19T19:01:04.600Z,77.47
2023-02-19T19:03:32.299Z,78.02
2023-02-19T19:06:01.351Z,77.09
2023-02-19T19:08:30.657Z,77.42
2023-02-19T19:10:58.611Z,77.45
2023-02-19T19:13:26.370Z,78.03
2023-02-19T19:15:54.154Z,78.21
2023-02-19T19:18:21.969Z,78.50
2023-02-19T19:20:49.693Z,78.50
2023-02-19T19:23:18.792Z,76.99
2023-02-19T19:25:46.438Z,77.68
2023-02-19T19:28:14.049Z,77.52
2023-02-19T19:30:42.556Z,77.21
2023-02-19T19:33:11.997Z,77.49
2023-02-19T19:35:39.704Z,76.81
2023-02-19T19:38:07.528Z,76.44
2023-02-19T19:40:36.715Z,76.14
2023-02-19T19:43:04.403Z,76.95
2023-02-19T19:45:32.146Z,75.93
2023-02-19T19:47:59.931Z,76.09
2023-02-19T19:50:27.763Z,76.69
2023-02-19T19:52:55.406Z,76.37
2023-02-19T19:55:23.200Z,75.95
2023-02-19T19:57:53.908Z,75.70
2023-02-19T20:00:23.483Z,75.82
2023-02-19T20:02:51.187Z,76.37
2023-02-19T20:05:19.105Z,77.25
2023-02-19T20:07:46.805Z,76.36
2023-02-19T20:10:16.012Z,76.36
2023-02-19T20:12:44.006Z,76.82
2023-02-19T20:15:13.744Z,76.70
2023-02-19T20:17:41.396Z,77.79
2023-02-19T20:20:10.455Z,77.42
2023-02-19T20:22:39.227Z,77.72
2023-02-19T20:25:07.309Z,77.30
2023-02-19T20:27:35.041Z,78.13
2023-02-19T20:30:02.763Z,79.00
2023-02-19T20:32:31.944Z,79.13
2023-02-19T20:34:59.661Z,79.76
2023-02-19T20:37:27.342Z,79.94
2023-02-19T20:39:54.988Z,79.82
2023-02-19T20:42:22.647Z,80.71
2023-02-19T20:44:50.318Z,81.33
2023-02-19T20:47:17.995Z,81.38
2023-02-19T20:49:47.233Z,81.74
2023-02-19T20:52:15.910Z,82.18
2023-02-19T20:54:44.454Z,82.38
2023-02-19T20:57:12.437Z,82.90
2023-02-19T20:59:40.807Z,83.30
2023-02-19T21:02:21.830Z,83.66
2023-02-19T21:04:51.234Z,83.67
2023-02-19T21:07:18.870Z,83.86
2023-02-19T21:09:46.559Z,83.98
2023-02-19T21:12:14.459Z,83.48
2023-02-19T21:14:42.169Z,83.57
2023-02-19T21:17:09.881Z,83.88
2023-02-19T21:19:37.599Z,84.09
2023-02-19T21:22:06.687Z,84.28
2023-02-19T21:24:34.304Z,84.21
2023-02-19T21:27:02.076Z,83.85
2023-02-19T21:29:29.749Z,83.65
2023-02-19T21:31:58.440Z,83.73
2023-02-19T21:34:27.399Z,83.68
2023-02-19T21:36:55.691Z,83.65
2023-02-19T21:39:27.308Z,83.73
2023-02-19T21:41:54.985Z,83.73
2023-02-19T21:44:22.826Z,83.98
2023-02-19T21:46:50.542Z,84.01
2023-02-19T21:49:18.665Z,83.85
2023-02-19T21:51:48.508Z,83.55
2023-02-19T21:54:17.207Z,83.62
2023-02-19T21:56:46.401Z,83.71
2023-02-19T21:59:14.498Z,83.50
2023-02-19T22:01:43.304Z,83.64
2023-02-19T22:04:12.392Z,83.24
2023-02-19T22:06:40.478Z,83.11
2023-02-19T22:09:08.957Z,83.30
2023-02-19T22:11:36.632Z,83.48
2023-02-19T22:14:05.747Z,83.81
2023-02-19T22:16:33.573Z,83.45
2023-02-19T22:19:01.467Z,83.24
2023-02-19T22:21:32.297Z,83.50
2023-02-19T22:24:00.710Z,84.05
2023-02-19T22:26:30.106Z,83.65
2023-02-19T22:28:59.463Z,83.53
2023-02-19T22:31:29.320Z,83.57
2023-02-19T22:33:58.262Z,83.73
2023-02-19T22:36:27.903Z,84.00
2023-02-19T22:38:55.683Z,84.03
2023-02-19T22:41:24.098Z,84.15
2023-02-19T22:43:52.043Z,84.15
2023-02-19T22:46:21.808Z,84.29
2023-02-19T22:48:51.015Z,83.97
2023-02-19T22:51:20.412Z,83.89
2023-02-19T22:53:49.303Z,83.97
2023-02-19T22:56:18.715Z,84.71
2023-02-19T22:58:46.581Z,84.38
2023-02-19T23:01:15.513Z,84.44
2023-02-19T23:03:47.462Z,84.65
2023-02-19T23:06:17.370Z,84.58
2023-02-19T23:08:45.380Z,84.83
2023-02-19T23:11:13.928Z,84.82
2023-02-19T23:13:41.927Z,85.27
2023-02-19T23:16:09.829Z,85.36
2023-02-19T23:18:37.623Z,85.25
2023-02-19T23:21:05.491Z,85.22
2023-02-19T23:23:34.614Z,85.10
2023-02-19T23:26:02.307Z,85.27
2023-02-19T23:28:30.368Z,86.07
2023-02-19T23:30:58.191Z,85.55
2023-02-19T23:33:26.070Z,85.60
2023-02-19T23:35:53.891Z,85.85
2023-02-19T23:38:22.154Z,85.68
2023-02-19T23:40:51.207Z,86.11
2023-02-19T23:43:18.848Z,86.32
2023-02-19T23:45:46.585Z,86.41
2023-02-19T23:48:14.323Z,86.35
2023-02-19T23:50:41.959Z,86.67
2023-02-19T23:53:09.952Z,86.25
2023-02-19T23:55:37.732Z,86.69
2023-02-19T23:58:06.826Z,87.00
